Flugplatz Neumagen-Dhron

Für EDRD sind keine METAR/TAF Berichte vorhanden.
Es werden die Flugwettermeldungen vom Flugplatz Spangdahlem Air Base in 21 km Entfernung angezeigt.

Bericht für ETAD

vom 07.03. um 01:56 UTC

Wind 5 kt aus 10°

Sichtweite 10 km oder mehr

keine Wolken

Temperatur -2.3°C

Taupunkt -9.0°C

Luftfeuchtigkeit 60%

Luftdruck 1025 hPa

ETAD 070156Z AUTO 01005KT 9999 CLR M02/M09 A3027 RMK AO2 SLP258 T10231090

Prognose für ETAD

vom 06.03. um 15:00 UTC

Am 06.03. zwischen 15:00 UTC und 21:00 UTC

Wind 9 kt aus 60°

Sichtweite 10 km oder mehr

keine Wolken

TAF ETAD 061500Z 0615/0721 06009KT 9999 SKC QNH3015INS TX06/0615Z TNM03/0705Z LAST NO AMDS AFT 0619 NEXT 0711
Impressum